sensor_id;sensor_type;location;lat;lon;timestamp;pressure;altitude;pressure_sealevel;temperature;humidity
42633;BME280;28261;53.304;-6.284;2023-08-17T00:00:00;101665.28;;;13.58;100.00
42633;BME280;28261;53.304;-6.284;2023-08-17T00:02:06;101659.19;;;13.56;100.00
42633;BME280;28261;53.304;-6.284;2023-08-17T00:04:14;101663.66;;;13.55;100.00
42633;BME280;28261;53.304;-6.284;2023-08-17T00:06:21;101662.81;;;13.54;100.00
42633;BME280;28261;53.304;-6.284;2023-08-17T00:08:26;101664.72;;;13.52;100.00
42633;BME280;28261;53.304;-6.284;2023-08-17T00:10:29;101661.19;;;13.52;100.00
42633;BME280;28261;53.304;-6.284;2023-08-17T00:12:34;101659.59;;;13.49;100.00
42633;BME280;28261;53.304;-6.284;2023-08-17T00:14:38;101667.69;;;13.48;100.00
42633;BME280;28261;53.304;-6.284;2023-08-17T00:16:44;101663.41;;;13.45;100.00
42633;BME280;28261;53.304;-6.284;2023-08-17T00:18:49;101662.53;;;13.45;100.00
42633;BME280;28261;53.304;-6.284;2023-08-17T00:20:53;101661.88;;;13.41;100.00
42633;BME280;28261;53.304;-6.284;2023-08-17T00:22:58;101664.56;;;13.41;100.00
42633;BME280;28261;53.304;-6.284;2023-08-17T00:25:07;101660.91;;;13.42;100.00
42633;BME280;28261;53.304;-6.284;2023-08-17T00:27:12;101661.88;;;13.41;100.00
42633;BME280;28261;53.304;-6.284;2023-08-17T00:29:18;101657.50;;;13.40;100.00
42633;BME280;28261;53.304;-6.284;2023-08-17T00:31:23;101654.00;;;13.40;100.00
42633;BME280;28261;53.304;-6.284;2023-08-17T00:33:29;101652.53;;;13.34;100.00
42633;BME280;28261;53.304;-6.284;2023-08-17T00:35:34;101644.94;;;13.28;100.00
42633;BME280;28261;53.304;-6.284;2023-08-17T00:37:38;101649.81;;;13.21;100.00
42633;BME280;28261;53.304;-6.284;2023-08-17T00:39:45;101643.81;;;13.17;100.00
42633;BME280;28261;53.304;-6.284;2023-08-17T00:41:49;101647.34;;;13.18;100.00
42633;BME280;28261;53.304;-6.284;2023-08-17T00:43:54;101641.91;;;13.19;100.00
42633;BME280;28261;53.304;-6.284;2023-08-17T00:46:00;101638.31;;;13.20;100.00
42633;BME280;28261;53.304;-6.284;2023-08-17T00:48:07;101636.59;;;13.19;100.00
42633;BME280;28261;53.304;-6.284;2023-08-17T00:50:14;101638.31;;;13.20;100.00
42633;BME280;28261;53.304;-6.284;2023-08-17T00:52:20;101632.22;;;13.18;100.00
42633;BME280;28261;53.304;-6.284;2023-08-17T00:54:27;101631.28;;;13.19;100.00
42633;BME280;28261;53.304;-6.284;2023-08-17T00:56:36;101630.44;;;13.19;100.00
42633;BME280;28261;53.304;-6.284;2023-08-17T00:58:42;101630.44;;;13.19;100.00
42633;BME280;28261;53.304;-6.284;2023-08-17T01:00:47;101629.56;;;13.18;100.00
42633;BME280;28261;53.304;-6.284;2023-08-17T01:02:52;101625.28;;;13.16;100.00
42633;BME280;28261;53.304;-6.284;2023-08-17T01:04:58;101627.09;;;13.15;100.00
42633;BME280;28261;53.304;-6.284;2023-08-17T01:07:03;101628.03;;;13.14;100.00
42633;BME280;28261;53.304;-6.284;2023-08-17T01:09:10;101626.31;;;13.13;100.00
42633;BME280;28261;53.304;-6.284;2023-08-17T01:11:21;101628.88;;;13.15;100.00
42633;BME280;28261;53.304;-6.284;2023-08-17T01:13:36;101626.31;;;13.13;100.00
42633;BME280;28261;53.304;-6.284;2023-08-17T01:15:48;101621.00;;;13.13;100.00
42633;BME280;28261;53.304;-6.284;2023-08-17T01:17:58;101617.38;;;13.14;100.00
42633;BME280;28261;53.304;-6.284;2023-08-17T01:20:08;101617.38;;;13.14;100.00
42633;BME280;28261;53.304;-6.284;2023-08-17T01:22:17;101610.34;;;13.13;100.00
42633;BME280;28261;53.304;-6.284;2023-08-17T01:24:27;101618.34;;;13.13;100.00
42633;BME280;28261;53.304;-6.284;2023-08-17T01:26:32;101613.00;;;13.13;100.00
42633;BME280;28261;53.304;-6.284;2023-08-17T01:28:37;101607.78;;;13.12;100.00
42633;BME280;28261;53.304;-6.284;2023-08-17T01:30:48;101610.56;;;13.10;100.00
42633;BME280;28261;53.304;-6.284;2023-08-17T01:32:58;101600.84;;;13.09;100.00
42633;BME280;28261;53.304;-6.284;2023-08-17T01:35:11;101601.81;;;13.08;100.00
42633;BME280;28261;53.304;-6.284;2023-08-17T01:37:20;101604.38;;;13.10;100.00
42633;BME280;28261;53.304;-6.284;2023-08-17T01:39:33;101604.38;;;13.10;100.00
42633;BME280;28261;53.304;-6.284;2023-08-17T01:41:41;101600.84;;;13.09;100.00
42633;BME280;28261;53.304;-6.284;2023-08-17T01:43:46;101605.22;;;13.10;100.00
42633;BME280;28261;53.304;-6.284;2023-08-17T01:45:50;101601.16;;;13.04;100.00
42633;BME280;28261;53.304;-6.284;2023-08-17T01:47:55;101594.31;;;13.00;100.00
42633;BME280;28261;53.304;-6.284;2023-08-17T01:50:00;101597.28;;;12.96;100.00
42633;BME280;28261;53.304;-6.284;2023-08-17T01:52:05;101588.53;;;12.94;100.00
42633;BME280;28261;53.304;-6.284;2023-08-17T01:54:10;101591.38;;;12.91;100.00
42633;BME280;28261;53.304;-6.284;2023-08-17T01:56:17;101587.00;;;12.90;100.00
42633;BME280;28261;53.304;-6.284;2023-08-17T01:58:23;101583.59;;;12.88;100.00
42633;BME280;28261;53.304;-6.284;2023-08-17T02:00:30;101588.16;;;12.85;100.00
42633;BME280;28261;53.304;-6.284;2023-08-17T02:02:34;101587.38;;;12.83;100.00
42633;BME280;28261;53.304;-6.284;2023-08-17T02:04:39;101582.25;;;12.80;100.00
42633;BME280;28261;53.304;-6.284;2023-08-17T02:06:44;101583.19;;;12.79;100.00
42633;BME280;28261;53.304;-6.284;2023-08-17T02:08:49;101585.88;;;12.79;100.00
42633;BME280;28261;53.304;-6.284;2023-08-17T02:10:57;101583.31;;;12.78;100.00
42633;BME280;28261;53.304;-6.284;2023-08-17T02:13:04;101577.97;;;12.78;100.00
42633;BME280;28261;53.304;-6.284;2023-08-17T02:15:19;101582.47;;;12.77;100.00
42633;BME280;28261;53.304;-6.284;2023-08-17T02:17:24;101582.66;;;12.74;100.00
42633;BME280;28261;53.304;-6.284;2023-08-17T02:19:31;101578.47;;;12.70;100.00
42633;BME280;28261;53.304;-6.284;2023-08-17T02:21:36;101583.03;;;12.68;100.00
42633;BME280;28261;53.304;-6.284;2023-08-17T02:23:40;101583.22;;;12.65;100.00
42633;BME280;28261;53.304;-6.284;2023-08-17T02:25:45;101585.03;;;12.64;100.00
42633;BME280;28261;53.304;-6.284;2023-08-17T02:27:50;101584.06;;;12.65;100.00
42633;BME280;28261;53.304;-6.284;2023-08-17T02:29:57;101582.44;;;12.63;100.00
42633;BME280;28261;53.304;-6.284;2023-08-17T02:32:03;101580.00;;;12.60;100.00
42633;BME280;28261;53.304;-6.284;2023-08-17T02:34:10;101576.69;;;12.56;100.00
42633;BME280;28261;53.304;-6.284;2023-08-17T02:36:15;101575.06;;;12.53;100.00
42633;BME280;28261;53.304;-6.284;2023-08-17T02:38:20;101579.59;;;12.51;100.00
42633;BME280;28261;53.304;-6.284;2023-08-17T02:40:25;101584.94;;;12.51;100.00
42633;BME280;28261;53.304;-6.284;2023-08-17T02:42:30;101586.75;;;12.51;100.00
42633;BME280;28261;53.304;-6.284;2023-08-17T02:44:35;101587.59;;;12.51;100.00
42633;BME280;28261;53.304;-6.284;2023-08-17T02:46:41;101584.00;;;12.52;100.00
42633;BME280;28261;53.304;-6.284;2023-08-17T02:48:46;101572.31;;;12.55;100.00
42633;BME280;28261;53.304;-6.284;2023-08-17T02:50:53;101575.72;;;12.57;100.00
42633;BME280;28261;53.304;-6.284;2023-08-17T02:52:57;101569.53;;;12.57;100.00
42633;BME280;28261;53.304;-6.284;2023-08-17T02:55:03;101563.28;;;12.58;100.00
42633;BME280;28261;53.304;-6.284;2023-08-17T02:57:08;101564.03;;;12.60;100.00
42633;BME280;28261;53.304;-6.284;2023-08-17T02:59:13;101559.59;;;12.60;100.00
42633;BME280;28261;53.304;-6.284;2023-08-17T03:01:18;101563.66;;;12.66;100.00
42633;BME280;28261;53.304;-6.284;2023-08-17T03:03:25;101562.69;;;12.67;100.00
42633;BME280;28261;53.304;-6.284;2023-08-17T03:05:30;101552.81;;;12.69;100.00
42633;BME280;28261;53.304;-6.284;2023-08-17T03:07:34;101549.13;;;12.72;100.00
42633;BME280;28261;53.304;-6.284;2023-08-17T03:09:39;101545.59;;;12.71;100.00
42633;BME280;28261;53.304;-6.284;2023-08-17T03:11:44;101544.63;;;12.72;100.00
42633;BME280;28261;53.304;-6.284;2023-08-17T03:13:49;101539.31;;;12.72;100.00
42633;BME280;28261;53.304;-6.284;2023-08-17T03:15:55;101535.72;;;12.73;100.00
42633;BME280;28261;53.304;-6.284;2023-08-17T03:18:00;101532.94;;;12.75;100.00
42633;BME280;28261;53.304;-6.284;2023-08-17T03:20:07;101532.00;;;12.76;100.00
42633;BME280;28261;53.304;-6.284;2023-08-17T03:22:12;101532.84;;;12.76;100.00
42633;BME280;28261;53.304;-6.284;2023-08-17T03:24:16;101525.81;;;12.75;100.00
42633;BME280;28261;53.304;-6.284;2023-08-17T03:26:20;101533.72;;;12.77;100.00
42633;BME280;28261;53.304;-6.284;2023-08-17T03:28:25;101533.91;;;12.74;100.00
42633;BME280;28261;53.304;-6.284;2023-08-17T03:30:30;101526.13;;;12.70;100.00
42633;BME280;28261;53.304;-6.284;2023-08-17T03:32:35;101522.78;;;12.67;100.00
42633;BME280;28261;53.304;-6.284;2023-08-17T03:34:41;101521.28;;;12.63;100.00
42633;BME280;28261;53.304;-6.284;2023-08-17T03:36:48;101518.06;;;12.58;100.00
42633;BME280;28261;53.304;-6.284;2023-08-17T03:38:53;101521.88;;;12.53;100.00
42633;BME280;28261;53.304;-6.284;2023-08-17T03:40:58;101517.59;;;12.51;100.00
42633;BME280;28261;53.304;-6.284;2023-08-17T03:43:02;101517.69;;;12.49;100.00
42633;BME280;28261;53.304;-6.284;2023-08-17T03:45:07;101515.97;;;12.48;100.00
42633;BME280;28261;53.304;-6.284;2023-08-17T03:47:12;101517.75;;;12.48;100.00
42633;BME280;28261;53.304;-6.284;2023-08-17T03:49:17;101508.00;;;12.48;100.00
42633;BME280;28261;53.304;-6.284;2023-08-17T03:51:22;101518.63;;;12.48;100.00
42633;BME280;28261;53.304;-6.284;2023-08-17T03:53:28;101521.28;;;12.48;100.00
42633;BME280;28261;53.304;-6.284;2023-08-17T03:55:33;101521.28;;;12.48;100.00
42633;BME280;28261;53.304;-6.284;2023-08-17T03:57:38;101523.75;;;12.51;100.00
42633;BME280;28261;53.304;-6.284;2023-08-17T03:59:42;101519.13;;;12.55;100.00
42633;BME280;28261;53.304;-6.284;2023-08-17T04:01:47;101521.47;;;12.60;100.00
42633;BME280;28261;53.304;-6.284;2023-08-17T04:03:54;101519.38;;;12.65;100.00
42633;BME280;28261;53.304;-6.284;2023-08-17T04:06:04;101526.22;;;12.69;100.00
42633;BME280;28261;53.304;-6.284;2023-08-17T04:08:13;101519.84;;;12.72;100.00
42633;BME280;28261;53.304;-6.284;2023-08-17T04:10:19;101511.56;;;12.76;100.00
42633;BME280;28261;53.304;-6.284;2023-08-17T04:12:23;101518.50;;;12.79;100.00
42633;BME280;28261;53.304;-6.284;2023-08-17T04:14:29;101520.97;;;12.82;100.00
42633;BME280;28261;53.304;-6.284;2023-08-17T04:16:34;101512.88;;;12.83;100.00
42633;BME280;28261;53.304;-6.284;2023-08-17T04:18:39;101516.41;;;12.84;100.00
42633;BME280;28261;53.304;-6.284;2023-08-17T04:20:44;101516.31;;;12.85;100.00
42633;BME280;28261;53.304;-6.284;2023-08-17T04:22:51;101513.53;;;12.87;100.00
42633;BME280;28261;53.304;-6.284;2023-08-17T04:24:55;101510.03;;;12.86;100.00
42633;BME280;28261;53.304;-6.284;2023-08-17T04:27:02;101506.31;;;12.89;100.00
42633;BME280;28261;53.304;-6.284;2023-08-17T04:29:07;101507.94;;;12.92;100.00
42633;BME280;28261;53.304;-6.284;2023-08-17T04:31:14;101508.56;;;12.95;100.00
42633;BME280;28261;53.304;-6.284;2023-08-17T04:33:25;101509.34;;;12.97;100.00
42633;BME280;28261;53.304;-6.284;2023-08-17T04:35:30;101507.44;;;12.99;100.00
42633;BME280;28261;53.304;-6.284;2023-08-17T04:37:36;101497.72;;;12.98;100.00
42633;BME280;28261;53.304;-6.284;2023-08-17T04:39:44;101503.81;;;13.00;100.00
42633;BME280;28261;53.304;-6.284;2023-08-17T04:41:55;101494.88;;;13.01;100.00
42633;BME280;28261;53.304;-6.284;2023-08-17T04:44:06;101502.78;;;13.03;100.00
42633;BME280;28261;53.304;-6.284;2023-08-17T04:46:10;101501.91;;;13.02;100.00
42633;BME280;28261;53.304;-6.284;2023-08-17T04:48:16;101497.44;;;13.03;100.00
42633;BME280;28261;53.304;-6.284;2023-08-17T04:50:22;101495.72;;;13.02;100.00
42633;BME280;28261;53.304;-6.284;2023-08-17T04:52:28;101494.00;;;13.01;100.00
42633;BME280;28261;53.304;-6.284;2023-08-17T04:54:33;101489.66;;;13.00;100.00
42633;BME280;28261;53.304;-6.284;2023-08-17T04:56:38;101492.34;;;13.00;100.00
42633;BME280;28261;53.304;-6.284;2023-08-17T04:58:43;101485.50;;;12.96;100.00
42633;BME280;28261;53.304;-6.284;2023-08-17T05:00:50;101476.94;;;12.91;100.00
42633;BME280;28261;53.304;-6.284;2023-08-17T05:02:54;101474.50;;;12.88;100.00
42633;BME280;28261;53.304;-6.284;2023-08-17T05:05:03;101476.28;;;12.87;100.00
42633;BME280;28261;53.304;-6.284;2023-08-17T05:07:09;101475.44;;;12.86;100.00
42633;BME280;28261;53.304;-6.284;2023-08-17T05:09:13;101476.28;;;12.87;100.00
42633;BME280;28261;53.304;-6.284;2023-08-17T05:11:18;101467.47;;;12.86;100.00
42633;BME280;28261;53.304;-6.284;2023-08-17T05:13:24;101471.84;;;12.88;100.00
42633;BME280;28261;53.304;-6.284;2023-08-17T05:15:31;101471.84;;;12.88;100.00
42633;BME280;28261;53.304;-6.284;2023-08-17T05:17:41;101469.06;;;12.89;100.00
42633;BME280;28261;53.304;-6.284;2023-08-17T05:19:46;101466.31;;;12.91;100.00
42633;BME280;28261;53.304;-6.284;2023-08-17T05:21:51;101461.94;;;12.90;100.00
42633;BME280;28261;53.304;-6.284;2023-08-17T05:23:57;101464.59;;;12.90;100.00
42633;BME280;28261;53.304;-6.284;2023-08-17T05:26:01;101464.59;;;12.90;100.00
42633;BME280;28261;53.304;-6.284;2023-08-17T05:28:05;101460.97;;;12.91;100.00
42633;BME280;28261;53.304;-6.284;2023-08-17T05:30:10;101464.50;;;12.91;100.00
42633;BME280;28261;53.304;-6.284;2023-08-17T05:32:14;101460.03;;;12.92;100.00
42633;BME280;28261;53.304;-6.284;2023-08-17T05:34:20;101461.63;;;12.94;100.00
42633;BME280;28261;53.304;-6.284;2023-08-17T05:36:27;101470.28;;;12.98;100.00
42633;BME280;28261;53.304;-6.284;2023-08-17T05:38:31;101470.06;;;13.01;100.00
42633;BME280;28261;53.304;-6.284;2023-08-17T05:40:36;101466.13;;;13.07;100.00
42633;BME280;28261;53.304;-6.284;2023-08-17T05:42:41;101467.56;;;13.12;100.00
42633;BME280;28261;53.304;-6.284;2023-08-17T05:44:46;101467.91;;;13.20;100.00
42633;BME280;28261;53.304;-6.284;2023-08-17T05:46:51;101463.78;;;13.29;100.00
42633;BME280;28261;53.304;-6.284;2023-08-17T05:48:55;101468.63;;;13.37;100.00
42633;BME280;28261;53.304;-6.284;2023-08-17T05:51:03;101460.97;;;13.45;100.00
42633;BME280;28261;53.304;-6.284;2023-08-17T05:53:07;101461.41;;;13.52;100.00
42633;BME280;28261;53.304;-6.284;2023-08-17T05:55:12;101458.44;;;13.57;100.00
42633;BME280;28261;53.304;-6.284;2023-08-17T05:57:16;101458.88;;;13.63;100.00
42633;BME280;28261;53.304;-6.284;2023-08-17T05:59:19;101454.19;;;13.67;100.00
42633;BME280;28261;53.304;-6.284;2023-08-17T06:01:29;101452.16;;;13.70;100.00
42633;BME280;28261;53.304;-6.284;2023-08-17T06:03:34;101458.88;;;13.76;100.00
42633;BME280;28261;53.304;-6.284;2023-08-17T06:05:39;101465.69;;;13.80;100.00
42633;BME280;28261;53.304;-6.284;2023-08-17T06:07:44;101459.19;;;13.84;100.00
42633;BME280;28261;53.304;-6.284;2023-08-17T06:09:48;101453.44;;;13.91;100.00
42633;BME280;28261;53.304;-6.284;2023-08-17T06:11:52;101457.50;;;13.96;100.00
42633;BME280;28261;53.304;-6.284;2023-08-17T06:13:56;101456.97;;;14.04;100.00
42633;BME280;28261;53.304;-6.284;2023-08-17T06:16:01;101448.41;;;14.12;100.00
42633;BME280;28261;53.304;-6.284;2023-08-17T06:18:05;101444.16;;;14.22;100.00
42633;BME280;28261;53.304;-6.284;2023-08-17T06:20:11;101452.22;;;14.46;100.00
42633;BME280;28261;53.304;-6.284;2023-08-17T06:22:16;101447.28;;;14.90;100.00
42633;BME280;28261;53.304;-6.284;2023-08-17T06:24:22;101439.72;;;15.44;100.00
42633;BME280;28261;53.304;-6.284;2023-08-17T06:26:26;101434.28;;;16.03;100.00
42633;BME280;28261;53.304;-6.284;2023-08-17T06:28:30;101438.16;;;16.77;100.00
42633;BME280;28261;53.304;-6.284;2023-08-17T06:30:33;101440.16;;;17.40;100.00
42633;BME280;28261;53.304;-6.284;2023-08-17T06:32:37;101444.38;;;17.85;100.00
42633;BME280;28261;53.304;-6.284;2023-08-17T06:34:41;101438.59;;;18.10;98.95
42633;BME280;28261;53.304;-6.284;2023-08-17T06:36:56;101441.59;;;18.17;97.42
42633;BME280;28261;53.304;-6.284;2023-08-17T06:39:00;101437.84;;;18.30;96.50
42633;BME280;28261;53.304;-6.284;2023-08-17T06:41:06;101434.69;;;18.24;96.04
42633;BME280;28261;53.304;-6.284;2023-08-17T06:43:10;101433.88;;;18.24;95.49
42633;BME280;28261;53.304;-6.284;2023-08-17T06:45:14;101428.47;;;18.14;95.45
42633;BME280;28261;53.304;-6.284;2023-08-17T06:47:20;101429.13;;;18.37;94.32
42633;BME280;28261;53.304;-6.284;2023-08-17T06:49:25;101422.22;;;18.54;93.92
42633;BME280;28261;53.304;-6.284;2023-08-17T06:51:28;101419.75;;;18.82;91.95
42633;BME280;28261;53.304;-6.284;2023-08-17T06:53:32;101428.78;;;18.81;90.96
42633;BME280;28261;53.304;-6.284;2023-08-17T06:55:36;101422.22;;;18.54;91.54
42633;BME280;28261;53.304;-6.284;2023-08-17T06:57:42;101426.59;;;18.46;91.97
42633;BME280;28261;53.304;-6.284;2023-08-17T06:59:46;101420.25;;;18.56;92.47
42633;BME280;28261;53.304;-6.284;2023-08-17T07:01:49;101417.44;;;18.58;91.30
42633;BME280;28261;53.304;-6.284;2023-08-17T07:03:54;101414.16;;;18.54;91.79
42633;BME280;28261;53.304;-6.284;2023-08-17T07:05:58;101409.53;;;18.76;90.61
42633;BME280;28261;53.304;-6.284;2023-08-17T07:08:03;101408.28;;;18.80;89.76
42633;BME280;28261;53.304;-6.284;2023-08-17T07:10:08;101402.22;;;18.98;90.09
42633;BME280;28261;53.304;-6.284;2023-08-17T07:12:12;101402.47;;;19.34;88.22
42633;BME280;28261;53.304;-6.284;2023-08-17T07:14:19;101409.19;;;19.77;86.07
42633;BME280;28261;53.304;-6.284;2023-08-17T07:16:24;101403.91;;;20.23;83.80
42633;BME280;28261;53.304;-6.284;2023-08-17T07:18:28;101402.31;;;20.76;81.63
42633;BME280;28261;53.304;-6.284;2023-08-17T07:20:32;101400.03;;;20.81;80.71
42633;BME280;28261;53.304;-6.284;2023-08-17T07:22:36;101399.03;;;20.82;79.55
42633;BME280;28261;53.304;-6.284;2023-08-17T07:24:40;101393.84;;;20.71;79.97
42633;BME280;28261;53.304;-6.284;2023-08-17T07:26:44;101386.25;;;20.38;79.84
42633;BME280;28261;53.304;-6.284;2023-08-17T07:28:47;101393.28;;;19.93;81.39
42633;BME280;28261;53.304;-6.284;2023-08-17T07:30:52;101393.81;;;19.50;82.31
42633;BME280;28261;53.304;-6.284;2023-08-17T07:32:55;101396.56;;;19.10;83.36
42633;BME280;28261;53.304;-6.284;2023-08-17T07:34:59;101385.97;;;19.09;84.40
42633;BME280;28261;53.304;-6.284;2023-08-17T07:37:04;101383.06;;;19.50;82.91
42633;BME280;28261;53.304;-6.284;2023-08-17T07:39:08;101392.78;;;19.80;81.04
42633;BME280;28261;53.304;-6.284;2023-08-17T07:41:13;101387.09;;;19.83;80.49
42633;BME280;28261;53.304;-6.284;2023-08-17T07:43:17;101384.13;;;19.67;81.08
42633;BME280;28261;53.304;-6.284;2023-08-17T07:45:21;101374.53;;;19.64;81.78
42633;BME280;28261;53.304;-6.284;2023-08-17T07:47:27;101377.34;;;19.62;81.07
42633;BME280;28261;53.304;-6.284;2023-08-17T07:49:30;101375.06;;;19.30;82.11
42633;BME280;28261;53.304;-6.284;2023-08-17T07:51:34;101377.63;;;18.92;83.91
42633;BME280;28261;53.304;-6.284;2023-08-17T07:53:39;101378.28;;;18.75;85.57
42633;BME280;28261;53.304;-6.284;2023-08-17T07:55:43;101374.03;;;18.72;85.46
42633;BME280;28261;53.304;-6.284;2023-08-17T07:57:47;101374.47;;;18.68;85.64
42633;BME280;28261;53.304;-6.284;2023-08-17T07:59:51;101371.56;;;18.90;85.20
42633;BME280;28261;53.304;-6.284;2023-08-17T08:01:56;101374.47;;;19.26;83.94
42633;BME280;28261;53.304;-6.284;2023-08-17T08:04:02;101365.28;;;19.76;81.62
42633;BME280;28261;53.304;-6.284;2023-08-17T08:06:07;101364.53;;;19.94;80.80
42633;BME280;28261;53.304;-6.284;2023-08-17T08:08:11;101359.31;;;20.20;79.89
42633;BME280;28261;53.304;-6.284;2023-08-17T08:10:15;101353.38;;;20.17;78.88
42633;BME280;28261;53.304;-6.284;2023-08-17T08:12:19;101356.50;;;19.84;80.42
42633;BME280;28261;53.304;-6.284;2023-08-17T08:14:23;101357.09;;;19.68;81.56
42633;BME280;28261;53.304;-6.284;2023-08-17T08:16:28;101361.84;;;19.47;82.81
42633;BME280;28261;53.304;-6.284;2023-08-17T08:18:33;101362.03;;;19.16;84.29
42633;BME280;28261;53.304;-6.284;2023-08-17T08:20:38;101361.22;;;18.96;85.57
42633;BME280;28261;53.304;-6.284;2023-08-17T08:22:42;101353.72;;;18.80;86.62
42633;BME280;28261;53.304;-6.284;2023-08-17T08:24:47;101352.69;;;18.71;87.41
42633;BME280;28261;53.304;-6.284;2023-08-17T08:26:51;101353.97;;;18.57;87.89
42633;BME280;28261;53.304;-6.284;2023-08-17T08:28:57;101362.59;;;18.51;88.29
42633;BME280;28261;53.304;-6.284;2023-08-17T08:31:01;101357.63;;;18.46;87.57
42633;BME280;28261;53.304;-6.284;2023-08-17T08:33:05;101360.16;;;18.38;87.13
42633;BME280;28261;53.304;-6.284;2023-08-17T08:35:10;101352.53;;;18.33;87.56
42633;BME280;28261;53.304;-6.284;2023-08-17T08:37:16;101357.03;;;18.33;87.31
42633;BME280;28261;53.304;-6.284;2023-08-17T08:39:19;101354.22;;;18.34;87.21
42633;BME280;28261;53.304;-6.284;2023-08-17T08:41:26;101352.84;;;18.40;86.55
42633;BME280;28261;53.304;-6.284;2023-08-17T08:43:31;101356.22;;;18.42;86.12
42633;BME280;28261;53.304;-6.284;2023-08-17T08:45:35;101353.38;;;18.34;85.96
42633;BME280;28261;53.304;-6.284;2023-08-17T08:47:41;101358.75;;;18.34;86.66
42633;BME280;28261;53.304;-6.284;2023-08-17T08:49:59;101366.38;;;18.38;86.18
42633;BME280;28261;53.304;-6.284;2023-08-17T08:52:07;101356.34;;;18.40;85.83
42633;BME280;28261;53.304;-6.284;2023-08-17T08:54:13;101367.38;;;18.47;85.25
42633;BME280;28261;53.304;-6.284;2023-08-17T08:56:22;101363.97;;;18.45;85.06
42633;BME280;28261;53.304;-6.284;2023-08-17T08:58:29;101356.50;;;18.39;85.11
42633;BME280;28261;53.304;-6.284;2023-08-17T09:00:34;101360.59;;;18.43;85.40
42633;BME280;28261;53.304;-6.284;2023-08-17T09:02:38;101358.91;;;18.61;85.23
42633;BME280;28261;53.304;-6.284;2023-08-17T09:04:44;101356.81;;;18.65;84.85
42633;BME280;28261;53.304;-6.284;2023-08-17T09:06:48;101358.22;;;18.69;84.08
42633;BME280;28261;53.304;-6.284;2023-08-17T09:08:55;101349.72;;;18.74;83.16
42633;BME280;28261;53.304;-6.284;2023-08-17T09:11:00;101345.06;;;18.76;82.87
42633;BME280;28261;53.304;-6.284;2023-08-17T09:13:05;101352.16;;;18.77;83.15
42633;BME280;28261;53.304;-6.284;2023-08-17T09:15:09;101354.28;;;18.93;82.30
42633;BME280;28261;53.304;-6.284;2023-08-17T09:17:14;101349.63;;;18.95;81.26
42633;BME280;28261;53.304;-6.284;2023-08-17T09:42:21;101316.56;;;18.94;80.52
42633;BME280;28261;53.304;-6.284;2023-08-17T09:44:27;101323.31;;;19.08;80.59
42633;BME280;28261;53.304;-6.284;2023-08-17T09:46:32;101318.88;;;19.27;79.98
42633;BME280;28261;53.304;-6.284;2023-08-17T09:51:08;101311.22;;;19.32;79.17
42633;BME280;28261;53.304;-6.284;2023-08-17T09:52:40;101304.72;;;19.35;79.48
42633;BME280;28261;53.304;-6.284;2023-08-17T09:54:45;101314.22;;;19.29;78.86
42633;BME280;28261;53.304;-6.284;2023-08-17T10:01:04;101314.13;;;19.11;80.77
42633;BME280;28261;53.304;-6.284;2023-08-17T10:03:10;101301.59;;;19.30;80.67
42633;BME280;28261;53.304;-6.284;2023-08-17T10:05:17;101299.16;;;19.46;79.94
42633;BME280;28261;53.304;-6.284;2023-08-17T10:07:30;101301.53;;;19.59;79.33
42633;BME280;28261;53.304;-6.284;2023-08-17T10:09:40;101297.31;;;19.47;78.66
42633;BME280;28261;53.304;-6.284;2023-08-17T10:11:52;101295.41;;;19.29;79.71
42633;BME280;28261;53.304;-6.284;2023-08-17T10:13:59;101298.09;;;19.29;80.45
42633;BME280;28261;53.304;-6.284;2023-08-17T10:16:10;101298.16;;;19.47;80.19
42633;BME280;28261;53.304;-6.284;2023-08-17T10:18:25;101299.28;;;19.44;79.71
42633;BME280;28261;53.304;-6.284;2023-08-17T10:20:30;101296.19;;;19.39;80.20
42633;BME280;28261;53.304;-6.284;2023-08-17T10:22:42;101293.19;;;19.52;80.37
42633;BME280;28261;53.304;-6.284;2023-08-17T10:24:49;101298.16;;;19.75;79.90
42633;BME280;28261;53.304;-6.284;2023-08-17T10:26:54;101285.81;;;19.92;79.34
42633;BME280;28261;53.304;-6.284;2023-08-17T10:28:59;101290.50;;;20.08;78.78
42633;BME280;28261;53.304;-6.284;2023-08-17T10:31:15;101276.53;;;20.22;77.46
42633;BME280;28261;53.304;-6.284;2023-08-17T10:33:21;101277.75;;;20.10;77.45
42633;BME280;28261;53.304;-6.284;2023-08-17T10:35:25;101279.22;;;20.04;78.01
42633;BME280;28261;53.304;-6.284;2023-08-17T10:37:31;101275.34;;;19.79;78.81
42633;BME280;28261;53.304;-6.284;2023-08-17T10:39:35;101278.34;;;19.76;79.56
42633;BME280;28261;53.304;-6.284;2023-08-17T10:41:46;101279.94;;;19.69;79.55
42633;BME280;28261;53.304;-6.284;2023-08-17T10:43:57;101277.47;;;19.57;80.10
42633;BME280;28261;53.304;-6.284;2023-08-17T10:46:15;101265.53;;;19.70;80.04
42633;BME280;28261;53.304;-6.284;2023-08-17T10:48:28;101265.03;;;19.84;80.00
42633;BME280;28261;53.304;-6.284;2023-08-17T10:50:39;101271.56;;;20.00;79.24
42633;BME280;28261;53.304;-6.284;2023-08-17T10:52:47;101271.16;;;20.22;78.86
42633;BME280;28261;53.304;-6.284;2023-08-17T10:54:51;101274.94;;;20.48;77.66
42633;BME280;28261;53.304;-6.284;2023-08-17T10:56:55;101271.53;;;20.63;76.83
42633;BME280;28261;53.304;-6.284;2023-08-17T10:59:01;101270.47;;;20.56;75.34
42633;BME280;28261;53.304;-6.284;2023-08-17T11:01:05;101269.94;;;20.35;76.07
42633;BME280;28261;53.304;-6.284;2023-08-17T11:03:17;101263.63;;;20.26;76.00
42633;BME280;28261;53.304;-6.284;2023-08-17T11:05:39;101270.69;;;20.27;75.99
42633;BME280;28261;53.304;-6.284;2023-08-17T11:07:44;101267.47;;;20.23;76.28
42633;BME280;28261;53.304;-6.284;2023-08-17T11:09:48;101269.16;;;20.24;75.46
42633;BME280;28261;53.304;-6.284;2023-08-17T11:11:53;101274.84;;;20.21;76.06